Strona główna
METAR-TAF:

METAR-TAF

Lotnisko :

Kinloss, Szkocja

Szerokość geograficzna: 57-39N, Długość geograficzna: 003-34W, wysokość: 7 m

Aktualna obserwacja pogody

Raport powstał 37 minut temu, godzina 07:50 UTC
Wiatr 14 kt od południowo-południowy zachód
Temperatura 9°C
Wilgotność 61%
Ciśnienie 1023 hPa
Widzialność 10 km lub więcej

METAR: EGQK 070750Z AUTO 20014KT 9999 ///////// 09/02 Q1023

czas: 09:27 (08:27 UTC)

Prognoza

Raport powstał 4 godziny i 9 minut temu, godzina 04:18 UTC
Prognoza ważna od 07 godzina 06 UTC do 07 godzina 24 UTC
Wiatr 10 kt od południowo-południowy zachód
Widzialność 10 km lub więcej
Mało chmury na wysokości 4500 ft
Przejściowo
od 07 godzina 07 UTC do 07 godzina 18 UTC
Wiatr 15 kt od południowo-południowy zachód w porywach dochodzący do 25 kt

TAF: EGQK 070418Z 0706/0724 20010KT 9999 FEW045 TEMPO 0707/0718 21015G25KT

Obserwacja i prognoza pogody dla ponad 4000 lotnisk (raport METAR i TAF).

Dostępne stacje oznaczono żółtymi i czerwonymi punktami na mapie.

Najedź kursorem aby zobaczyć nazwę stacji.

Kliknij aby zobaczyć obserwacje i prognozy pogody.

Aby zmienić mapę: kliknij na zielony przycisk z czarnym krzyżykiem, aby powiększyć; na zielony przycisk z myślnikiem, aby pomniejszyć; na zielone strzałki, aby przejść do map sąsiednich.


METAR-TAF: